Time;durP1;ratioP1;P1;durP2;ratioP2;P2;SDS_P1;SDS_P2;PMS_P1;PMS_P2;Temp;Humidity;BMP_temperature;BMP_pressure;BME280_temperature;BME280_humidity;BME280_pressure;Samples;Min_cycle;Max_cycle;Signal;HPM_P1;HPM_P2
2022/06/16 00:00:14;;;;;;;12.40;8.07;;;18.80;99.90;;;;;;5144274;28;20049;-72
2022/06/16 00:02:49;;;;;;;14.10;8.15;;;18.70;99.90;;;;;;5128460;28;20072;-70
2022/06/16 00:05:25;;;;;;;12.07;7.88;;;18.80;99.90;;;;;;5127677;28;20062;-72
2022/06/16 00:07:57;;;;;;;10.38;8.20;;;18.80;99.90;;;;;;5120673;28;20046;-73
2022/06/16 00:10:30;;;;;;;13.68;7.53;;;18.70;99.90;;;;;;5128577;28;20054;-72
2022/06/16 00:13:04;;;;;;;11.50;7.95;;;18.70;99.90;;;;;;5122227;28;20505;-72
2022/06/16 00:15:36;;;;;;;12.20;8.02;;;18.70;99.90;;;;;;5121707;28;20043;-73
2022/06/16 00:18:08;;;;;;;13.48;8.68;;;18.70;99.90;;;;;;5135225;28;20039;-72
2022/06/16 00:20:42;;;;;;;11.55;8.15;;;18.70;99.90;;;;;;5104096;28;20057;-72
2022/06/16 00:23:14;;;;;;;;;;;18.70;99.90;;;;;;5122138;28;20046;-72
2022/06/16 00:25:47;;;;;;;10.20;7.80;;;18.60;99.90;;;;;;5130198;28;19934;-72
2022/06/16 00:28:20;;;;;;;9.30;7.78;;;18.60;99.90;;;;;;5129286;28;20058;-72
2022/06/16 00:31:04;;;;;;;9.77;7.65;;;18.60;99.90;;;;;;5130392;28;20081;-73
2022/06/16 00:33:37;;;;;;;9.48;7.85;;;18.40;99.90;;;;;;5129609;28;20047;-73
2022/06/16 00:36:10;;;;;;;8.88;7.35;;;18.40;99.90;;;;;;5139391;28;20050;-72
2022/06/16 00:38:42;;;;;;;10.68;7.13;;;18.30;99.90;;;;;;5139466;28;20049;-72
2022/06/16 00:41:15;;;;;;;13.73;8.13;;;18.40;99.90;;;;;;5122459;28;20047;-73
2022/06/16 00:43:47;;;;;;;8.73;7.50;;;18.40;99.90;;;;;;5129583;28;20836;-74
2022/06/16 00:46:20;;;;;;;8.35;7.50;;;18.40;99.90;;;;;;5127463;28;20046;-72
2022/06/16 00:48:57;;;;;;;9.25;7.25;;;18.40;99.90;;;;;;5129014;28;20050;-71
2022/06/16 00:51:42;;;;;;;7.80;7.00;;;18.30;99.90;;;;;;5128909;28;20511;-73
2022/06/16 00:54:22;;;;;;;8.05;7.25;;;18.30;99.90;;;;;;5139671;28;20047;-72
2022/06/16 00:56:58;;;;;;;12.80;7.93;;;18.20;99.90;;;;;;5130161;28;20046;-72
2022/06/16 00:59:31;;;;;;;12.63;8.02;;;18.20;99.90;;;;;;5146390;28;20053;-72
2022/06/16 01:02:05;;;;;;;11.77;7.47;;;18.20;99.90;;;;;;5108803;28;20050;-72
2022/06/16 01:04:51;;;;;;;8.95;7.43;;;18.30;99.90;;;;;;5130890;28;20066;-73
2022/06/16 01:07:35;;;;;;;10.43;7.97;;;18.30;99.90;;;;;;5130893;28;20065;-72
2022/06/16 01:10:09;;;;;;;9.35;6.97;;;18.30;99.90;;;;;;5143995;28;20363;-73
2022/06/16 01:16:37;;;;;;;9.57;7.20;;;18.30;99.90;;;;;;5131415;28;20042;-72
2022/06/16 01:19:40;;;;;;;10.02;7.15;;;18.00;99.90;;;;;;5127164;28;20065;-73
2022/06/16 01:22:46;;;;;;;9.02;6.93;;;18.00;99.90;;;;;;5124808;28;20050;-72
2022/06/16 01:25:24;;;;;;;9.43;7.15;;;18.00;99.90;;;;;;5131315;28;20066;-73
2022/06/16 01:28:18;;;;;;;9.40;6.22;;;18.00;99.90;;;;;;5139919;28;20623;-73
2022/06/16 01:31:09;;;;;;;;;;;18.00;99.90;;;;;;5131351;28;20050;-73
2022/06/16 01:33:54;;;;;;;12.93;6.85;;;17.90;99.90;;;;;;5131523;28;20029;-73
2022/06/16 01:36:38;;;;;;;10.02;7.05;;;18.00;99.90;;;;;;5124175;28;20065;-72
2022/06/16 01:39:18;;;;;;;7.60;6.57;;;17.80;99.90;;;;;;5124586;28;20051;-73
2022/06/16 01:42:11;;;;;;;9.50;7.43;;;17.90;99.90;;;;;;5128610;28;20058;-73
2022/06/16 01:45:10;;;;;;;10.73;7.25;;;17.80;99.90;;;;;;5141793;28;20055;-73
2022/06/16 01:47:48;;;;;;;10.50;7.00;;;17.80;99.90;;;;;;5140684;28;20054;-73
2022/06/16 01:50:36;;;;;;;9.00;6.70;;;17.80;99.90;;;;;;5129642;28;20054;-73
2022/06/16 01:53:41;;;;;;;8.05;7.22;;;17.80;99.90;;;;;;5135194;28;20414;-73
2022/06/16 01:56:16;;;;;;;10.02;6.93;;;17.80;99.90;;;;;;5135075;28;20061;-72
2022/06/16 01:58:53;;;;;;;12.15;7.20;;;17.70;99.90;;;;;;5114983;28;20066;-72
2022/06/16 02:01:30;;;;;;;11.63;7.20;;;17.60;99.90;;;;;;5133544;28;20051;-73
2022/06/16 02:04:10;;;;;;;7.97;6.65;;;17.50;99.90;;;;;;5131415;28;20049;-73
2022/06/16 02:06:46;;;;;;;7.63;6.85;;;17.50;99.90;;;;;;5134573;28;20057;-73
2022/06/16 02:09:31;;;;;;;6.97;6.28;;;17.40;99.90;;;;;;5146917;28;21071;-71
2022/06/16 02:12:09;;;;;;;7.90;6.50;;;17.50;99.90;;;;;;5136544;28;20061;-73
2022/06/16 02:14:49;;;;;;;9.98;7.00;;;17.60;99.90;;;;;;5129457;28;20050;-73
2022/06/16 02:17:29;;;;;;;16.85;7.03;;;17.70;99.90;;;;;;5116490;28;20050;-73
2022/06/16 02:20:02;;;;;;;8.65;7.35;;;17.60;99.90;;;;;;5146109;28;20972;-73
2022/06/16 02:22:36;;;;;;;8.88;7.43;;;17.50;99.90;;;;;;5149500;28;20053;-73
2022/06/16 02:25:09;;;;;;;7.97;6.63;;;17.40;99.90;;;;;;5149042;28;20050;-72
2022/06/16 02:27:42;;;;;;;9.30;7.05;;;17.50;99.90;;;;;;5128869;28;20046;-73
2022/06/16 02:30:15;;;;;;;11.30;7.25;;;17.50;99.90;;;;;;5131730;28;20097;-73
2022/06/16 02:33:23;;;;;;;8.03;6.67;;;17.50;99.90;;;;;;5131506;28;20069;-73
2022/06/16 02:36:15;;;;;;;13.40;7.97;;;17.40;99.90;;;;;;5133388;28;20298;-72
2022/06/16 02:38:48;;;;;;;11.32;7.47;;;17.40;99.90;;;;;;5153201;28;20051;-73
2022/06/16 02:41:48;;;;;;;10.27;7.47;;;17.50;99.90;;;;;;5139499;28;20070;-72
2022/06/16 02:44:33;;;;;;;8.90;6.70;;;17.50;99.90;;;;;;5113859;28;20085;-73
2022/06/16 02:47:58;;;;;;;9.95;7.25;;;17.40;99.90;;;;;;5139208;28;20042;-73
2022/06/16 02:50:47;;;;;;;9.63;6.88;;;17.30;99.90;;;;;;5115551;28;20426;-73
2022/06/16 02:53:41;;;;;;;8.70;7.07;;;17.30;99.90;;;;;;5155028;28;20043;-73
2022/06/16 02:56:46;;;;;;;12.45;6.80;;;17.30;99.90;;;;;;5149177;28;20138;-73
2022/06/16 02:59:26;;;;;;;9.40;6.82;;;17.30;99.90;;;;;;5146561;28;20042;-71
2022/06/16 03:02:02;;;;;;;11.00;6.95;;;17.40;99.90;;;;;;5145448;28;20528;-72
2022/06/16 03:04:42;;;;;;;9.68;7.68;;;17.30;99.90;;;;;;5144511;28;20054;-72
2022/06/16 03:07:15;;;;;;;8.25;6.82;;;17.30;99.90;;;;;;5140454;28;20058;-72
2022/06/16 03:09:48;;;;;;;9.43;6.85;;;17.30;99.90;;;;;;5157450;28;20042;-72
2022/06/16 03:12:21;;;;;;;8.13;6.75;;;17.20;99.90;;;;;;5131856;28;20407;-72
2022/06/16 03:14:53;;;;;;;9.77;6.65;;;17.30;99.90;;;;;;5154761;28;20061;-72
2022/06/16 03:17:31;;;;;;;10.10;6.85;;;17.20;99.90;;;;;;5135627;28;20159;-72
2022/06/16 03:20:04;;;;;;;13.65;6.93;;;17.10;99.90;;;;;;5139973;28;20061;-72
2022/06/16 03:22:37;;;;;;;12.40;7.63;;;17.20;99.90;;;;;;5146576;28;20518;-72
2022/06/16 03:25:11;;;;;;;9.00;7.00;;;17.20;99.90;;;;;;5156368;28;20521;-71
2022/06/16 03:27:44;;;;;;;10.90;6.57;;;17.20;99.90;;;;;;5134949;28;20666;-72
2022/06/16 03:30:16;;;;;;;12.25;6.40;;;17.10;99.90;;;;;;5131717;28;20042;-72
2022/06/16 03:32:49;;;;;;;10.02;6.97;;;17.10;99.90;;;;;;5139972;23;20046;-76
2022/06/16 03:35:26;;;;;;;12.45;6.90;;;17.10;99.90;;;;;;5154204;28;20051;-75
2022/06/16 03:38:02;;;;;;;8.07;6.55;;;17.10;99.90;;;;;;5138209;28;20043;-75
2022/06/16 03:40:35;;;;;;;9.48;5.93;;;17.20;99.90;;;;;;5159910;28;20323;-77
2022/06/16 03:43:08;;;;;;;7.40;5.60;;;17.10;99.90;;;;;;5141161;28;20129;-74
2022/06/16 03:45:41;;;;;;;12.40;6.55;;;17.20;99.90;;;;;;5148837;28;20058;-77
2022/06/16 03:48:14;;;;;;;8.90;6.65;;;17.20;99.90;;;;;;5156130;28;20537;-76
2022/06/16 03:50:49;;;;;;;10.95;6.90;;;17.10;99.90;;;;;;5156705;28;20054;-77
2022/06/16 03:53:24;;;;;;;7.43;6.72;;;17.10;99.90;;;;;;5138648;28;20050;-75
2022/06/16 03:56:03;;;;;;;7.97;6.15;;;17.10;99.90;;;;;;5150419;28;20055;-76
2022/06/16 03:58:36;;;;;;;8.02;6.43;;;17.00;99.90;;;;;;5151551;28;20434;-77
2022/06/16 04:01:10;;;;;;;;;;;17.10;99.90;;;;;;5141961;28;20069;-78
2022/06/16 04:04:00;;;;;;;13.35;6.80;;;17.10;99.90;;;;;;5151152;28;19925;-79
2022/06/16 04:06:46;;;;;;;8.83;6.47;;;17.20;99.90;;;;;;5147052;28;20447;-75
2022/06/16 04:09:20;;;;;;;7.63;6.82;;;17.40;99.90;;;;;;5137710;28;20537;-77
2022/06/16 04:11:53;;;;;;;10.35;6.35;;;17.40;99.90;;;;;;5135428;28;20051;-76
2022/06/16 04:14:25;;;;;;;8.35;5.88;;;17.40;99.90;;;;;;5152178;28;20059;-76
2022/06/16 04:17:03;;;;;;;10.18;6.50;;;17.50;99.90;;;;;;5126221;28;20063;-78
2022/06/16 04:22:51;;;;;;;8.50;6.60;;;17.50;99.90;;;;;;5150243;28;20043;-76
2022/06/16 04:25:32;;;;;;;9.25;5.90;;;17.70;99.90;;;;;;5151628;28;20486;-76
2022/06/16 04:28:26;;;;;;;7.32;5.45;;;17.80;99.90;;;;;;5136280;28;20054;-77
2022/06/16 04:31:02;;;;;;;7.60;5.55;;;18.00;99.90;;;;;;5131735;28;20050;-75
2022/06/16 04:33:39;;;;;;;8.60;5.72;;;18.10;99.90;;;;;;5150464;28;20065;-77
2022/06/16 04:36:15;;;;;;;8.73;5.65;;;18.10;99.90;;;;;;5150069;28;20042;-77
2022/06/16 04:39:06;;;;;;;7.65;5.53;;;18.20;99.90;;;;;;5147672;28;20047;-78
2022/06/16 04:41:39;;;;;;;7.57;5.53;;;18.30;99.90;;;;;;5135354;28;20066;-77
2022/06/16 04:44:13;;;;;;;6.40;5.60;;;18.30;99.90;;;;;;5130444;28;20577;-77
2022/06/16 04:46:46;;;;;;;9.50;5.37;;;18.30;99.90;;;;;;5145446;28;20587;-77
2022/06/16 04:49:20;;;;;;;8.93;5.10;;;18.30;99.90;;;;;;5151457;28;20058;-76
2022/06/16 04:51:55;;;;;;;13.60;5.90;;;18.40;99.90;;;;;;5133675;28;20055;-75
2022/06/16 04:54:30;;;;;;;9.80;6.13;;;18.40;99.90;;;;;;5135024;28;20710;-74
2022/06/16 04:57:23;;;;;;;10.43;5.68;;;18.40;99.90;;;;;;5120613;28;20059;-75
2022/06/16 05:00:22;;;;;;;11.32;5.93;;;18.50;99.90;;;;;;5131071;28;20665;-78
2022/06/16 05:03:11;;;;;;;9.57;6.07;;;18.60;99.90;;;;;;5118296;28;20042;-75
2022/06/16 05:06:02;;;;;;;6.97;5.32;;;18.80;99.90;;;;;;5133915;28;20047;-75
2022/06/16 05:08:44;;;;;;;12.20;6.15;;;18.90;99.10;;;;;;5145544;28;20047;-75
2022/06/16 05:11:35;;;;;;;11.50;6.57;;;19.00;97.50;;;;;;5134944;28;20053;-75
2022/06/16 05:14:20;;;;;;;10.25;5.15;;;19.10;97.20;;;;;;5135139;28;20042;-75
2022/06/16 05:16:57;;;;;;;10.07;5.15;;;19.20;96.30;;;;;;5135912;28;20058;-78
2022/06/16 05:19:38;;;;;;;6.80;4.82;;;19.30;96.10;;;;;;5126179;28;20055;-77
2022/06/16 05:22:24;;;;;;;10.82;5.18;;;19.40;95.70;;;;;;5138984;28;20066;-77
2022/06/16 05:25:15;;;;;;;8.40;5.32;;;19.50;95.40;;;;;;5136000;28;20406;-77
2022/06/16 05:28:05;;;;;;;9.35;5.05;;;19.60;95.00;;;;;;5153195;28;20054;-76
2022/06/16 05:31:05;;;;;;;6.82;4.95;;;19.70;94.10;;;;;;5135043;28;20054;-76
2022/06/16 05:33:56;;;;;;;8.07;5.55;;;19.80;94.00;;;;;;5138001;28;20054;-75
2022/06/16 05:36:35;;;;;;;8.93;6.10;;;19.90;93.10;;;;;;5138294;28;20545;-76
2022/06/16 05:39:34;;;;;;;9.23;5.78;;;20.10;92.10;;;;;;5138469;28;20379;-78
2022/06/16 05:42:26;;;;;;;7.13;4.85;;;20.20;92.70;;;;;;5139499;28;20050;-76
2022/06/16 05:45:28;;;;;;;5.82;4.50;;;20.40;91.70;;;;;;5136862;28;20065;-77
2022/06/16 05:48:11;;;;;;;12.90;5.97;;;20.50;91.90;;;;;;5142253;28;20051;-76
2022/06/16 05:50:44;;;;;;;8.25;5.15;;;20.70;91.90;;;;;;5139408;28;20055;-78
2022/06/16 05:53:16;;;;;;;8.45;5.05;;;20.90;90.90;;;;;;5155990;28;20035;-76
2022/06/16 05:55:51;;;;;;;9.43;5.40;;;21.10;90.40;;;;;;5139145;28;20057;-75
2022/06/16 05:58:23;;;;;;;7.45;5.20;;;21.40;89.40;;;;;;5161911;28;20046;-77
2022/06/16 06:00:57;;;;;;;;;;;21.50;88.80;;;;;;5178453;28;20065;-78
2022/06/16 06:03:31;;;;;;;8.32;5.60;;;21.50;88.80;;;;;;5158249;28;20377;-76
2022/06/16 06:06:04;;;;;;;13.13;6.10;;;21.70;88.70;;;;;;5143968;28;20050;-76
2022/06/16 06:17:24;;;;;;;12.27;5.18;;;21.90;82.40;;;;;;5150982;28;20057;-76
2022/06/16 06:19:59;;;;;;;8.38;5.28;;;22.00;83.40;;;;;;5142316;28;20051;-76
2022/06/16 06:22:31;;;;;;;9.45;5.53;;;22.10;84.40;;;;;;5143028;28;20054;-76
2022/06/16 06:25:19;;;;;;;14.52;5.75;;;22.10;83.10;;;;;;5160581;28;20050;-76
2022/06/16 06:27:52;;;;;;;11.77;5.63;;;22.30;83.20;;;;;;5128447;28;20081;-76
2022/06/16 06:30:28;;;;;;;12.57;5.80;;;22.50;83.10;;;;;;5143179;28;20042;-76
2022/06/16 06:33:04;;;;;;;13.50;5.30;;;22.60;82.00;;;;;;5129103;28;20478;-76
2022/06/16 06:35:37;;;;;;;7.00;5.13;;;22.80;80.60;;;;;;5149557;28;20055;-76
2022/06/16 06:38:10;;;;;;;8.25;5.28;;;22.90;81.80;;;;;;5150338;28;20053;-77
2022/06/16 06:40:43;;;;;;;;;;;23.00;81.00;;;;;;5160289;28;20054;-78
2022/06/16 06:43:16;;;;;;;7.18;4.80;;;23.00;82.10;;;;;;5142670;28;20265;-76
2022/06/16 06:45:50;;;;;;;9.73;5.30;;;23.00;84.80;;;;;;5122722;28;20058;-77
2022/06/16 06:48:23;;;;;;;13.15;5.15;;;23.00;81.80;;;;;;5140734;28;20054;-76
2022/06/16 06:50:55;;;;;;;10.90;5.32;;;23.00;82.00;;;;;;5155041;28;20057;-76
2022/06/16 06:53:27;;;;;;;13.48;6.00;;;22.90;82.80;;;;;;5140947;28;20055;-76
2022/06/16 06:56:03;;;;;;;8.57;4.97;;;23.00;82.60;;;;;;5136932;28;20046;-75
2022/06/16 06:58:36;;;;;;;15.20;5.18;;;23.10;82.00;;;;;;5138107;28;20070;-77
2022/06/16 07:01:08;;;;;;;13.13;5.83;;;23.20;80.40;;;;;;5137658;28;20042;-76
2022/06/16 07:03:41;;;;;;;12.60;5.57;;;23.40;80.90;;;;;;5140042;28;20066;-78
2022/06/16 07:06:13;;;;;;;9.57;5.53;;;23.60;81.80;;;;;;5153627;28;20402;-78
2022/06/16 07:08:46;;;;;;;9.30;5.40;;;23.80;80.40;;;;;;5138977;28;20057;-77
2022/06/16 07:11:18;;;;;;;8.25;5.65;;;24.00;79.40;;;;;;5137122;28;20046;-76
2022/06/16 07:13:51;;;;;;;10.30;5.47;;;24.00;78.70;;;;;;5138984;28;20518;-79
2022/06/16 07:16:24;;;;;;;9.35;5.75;;;24.00;80.50;;;;;;5151832;28;20049;-78
2022/06/16 07:18:56;;;;;;;13.93;5.50;;;23.90;79.60;;;;;;5139383;28;20506;-76
2022/06/16 07:21:29;;;;;;;10.23;5.82;;;23.80;79.70;;;;;;5137173;28;20070;-76
2022/06/16 07:24:01;;;;;;;11.02;5.75;;;23.70;81.60;;;;;;5152239;28;20415;-75
2022/06/16 07:26:34;;;;;;;10.13;5.47;;;23.60;81.70;;;;;;5153151;28;20058;-77
2022/06/16 07:29:07;;;;;;;11.85;5.82;;;23.50;83.00;;;;;;5138674;28;20054;-77
2022/06/16 07:31:39;;;;;;;10.88;6.00;;;23.50;82.40;;;;;;5155454;28;20125;-77
2022/06/16 07:34:12;;;;;;;12.63;6.37;;;23.40;82.10;;;;;;5133144;28;20046;-76
2022/06/16 07:36:44;;;;;;;10.27;5.25;;;23.30;81.50;;;;;;5137328;28;20050;-77
2022/06/16 07:39:17;;;;;;;10.75;5.85;;;23.30;80.90;;;;;;5139531;28;20038;-76
2022/06/16 07:41:49;;;;;;;13.35;5.75;;;23.30;81.00;;;;;;5137594;28;20050;-76
2022/06/16 07:44:21;;;;;;;10.40;5.33;;;23.40;80.80;;;;;;5125265;28;20070;-76
2022/06/16 07:46:54;;;;;;;10.98;5.90;;;23.50;80.40;;;;;;5138268;28;20053;-78
2022/06/16 07:49:29;;;;;;;8.32;5.38;;;23.70;79.80;;;;;;5138724;28;20062;-76
2022/06/16 07:52:02;;;;;;;10.48;5.78;;;24.10;78.80;;;;;;5136833;28;20046;-75
2022/06/16 07:54:35;;;;;;;13.88;5.13;;;24.20;78.10;;;;;;5139773;28;20058;-76
2022/06/16 07:57:26;;;;;;;15.40;5.85;;;24.20;77.60;;;;;;5138291;28;20046;-76
2022/06/16 08:00:02;;;;;;;11.25;5.20;;;24.30;77.30;;;;;;5152851;28;20051;-76
2022/06/16 08:02:44;;;;;;;8.75;5.30;;;24.50;75.80;;;;;;5132631;28;20054;-76
2022/06/16 08:05:17;;;;;;;9.63;5.05;;;24.60;76.70;;;;;;5139440;28;20065;-77
2022/06/16 08:07:49;;;;;;;14.13;5.75;;;24.70;74.30;;;;;;5147684;28;20066;-77
2022/06/16 08:10:24;;;;;;;8.82;5.38;;;24.80;75.10;;;;;;5121628;28;20055;-78
2022/06/16 08:12:57;;;;;;;10.80;5.55;;;25.00;74.20;;;;;;5139681;28;20470;-78
2022/06/16 08:15:29;;;;;;;12.60;5.97;;;25.00;73.20;;;;;;5153970;28;20038;-77
2022/06/16 08:18:02;;;;;;;8.87;5.87;;;25.00;73.40;;;;;;5137082;28;20658;-77
2022/06/16 08:20:34;;;;;;;11.98;5.35;;;25.10;74.10;;;;;;5154227;28;20400;-76
2022/06/16 08:23:07;;;;;;;8.55;5.40;;;25.30;74.90;;;;;;5149479;28;20053;-77
2022/06/16 08:25:45;;;;;;;12.15;5.18;;;25.40;71.00;;;;;;5152499;28;20054;-77
2022/06/16 08:28:19;;;;;;;8.00;4.32;;;25.40;71.90;;;;;;5154985;28;20589;-76
2022/06/16 08:30:51;;;;;;;7.05;4.90;;;25.40;72.20;;;;;;5138218;28;20058;-77
2022/06/16 08:33:24;;;;;;;9.82;5.85;;;25.40;72.90;;;;;;5142155;28;20057;-77
2022/06/16 08:35:56;;;;;;;8.13;5.43;;;25.30;72.80;;;;;;5140272;28;20053;-77
2022/06/16 08:38:28;;;;;;;13.80;5.80;;;25.30;73.80;;;;;;5146525;28;20049;-77
2022/06/16 08:41:11;;;;;;;12.23;5.03;;;25.10;74.00;;;;;;5138637;28;20042;-76
2022/06/16 08:43:53;;;;;;;7.30;5.43;;;25.20;74.70;;;;;;5139649;28;20100;-78
2022/06/16 08:46:30;;;;;;;9.82;5.50;;;25.30;73.80;;;;;;5139457;28;20369;-79
2022/06/16 08:49:20;;;;;;;10.57;5.35;;;25.40;73.50;;;;;;5139525;28;20988;-76
2022/06/16 08:52:19;;;;;;;11.82;4.97;;;25.50;72.50;;;;;;5139478;28;20057;-78
2022/06/16 08:55:28;;;;;;;9.70;5.13;;;25.60;70.60;;;;;;5137766;28;20054;-76
2022/06/16 08:58:25;;;;;;;9.02;4.55;;;25.60;69.40;;;;;;5112660;28;20054;-77
2022/06/16 09:01:06;;;;;;;10.38;5.10;;;25.70;69.00;;;;;;5142702;28;20042;-76
2022/06/16 09:03:46;;;;;;;8.40;4.72;;;25.90;69.40;;;;;;5142396;28;20054;-77
2022/06/16 09:06:41;;;;;;;11.85;5.32;;;26.10;69.00;;;;;;5143845;28;20055;-77
2022/06/16 09:12:34;;;;;;;14.07;5.03;;;26.50;69.50;;;;;;5159791;28;20051;-75
2022/06/16 09:15:22;;;;;;;8.75;5.25;;;26.60;68.90;;;;;;5142844;28;20038;-77
2022/06/16 09:18:07;;;;;;;11.20;5.40;;;26.50;67.70;;;;;;5158477;28;20050;-77
2022/06/16 09:21:24;;;;;;;16.23;5.65;;;26.60;67.50;;;;;;5144939;28;20054;-78
2022/06/16 09:24:04;;;;;;;11.27;5.15;;;26.60;67.70;;;;;;5145152;28;20514;-78
2022/06/16 09:27:06;;;;;;;11.18;5.32;;;26.40;68.70;;;;;;5149368;28;20062;-77
2022/06/16 09:29:58;;;;;;;11.32;5.95;;;26.50;69.50;;;;;;5116833;28;20069;-77
2022/06/16 09:32:34;;;;;;;13.05;5.03;;;26.70;69.60;;;;;;5140836;28;20054;-77
2022/06/16 09:35:26;;;;;;;11.43;4.78;;;27.00;69.50;;;;;;5141854;28;20093;-77
2022/06/16 09:38:09;;;;;;;12.85;5.72;;;27.00;66.50;;;;;;5143012;28;20046;-77
2022/06/16 09:44:58;;;;;;;12.77;5.70;;;27.00;68.70;;;;;;5124282;28;20057;-77
2022/06/16 09:47:37;;;;;;;10.20;5.93;;;26.70;69.30;;;;;;5142156;28;20442;-78
2022/06/16 09:50:48;;;;;;;12.27;6.10;;;26.60;70.50;;;;;;5156596;28;20050;-78
2022/06/16 09:53:34;;;;;;;12.77;5.90;;;26.50;70.10;;;;;;5140077;28;20055;-77
2022/06/16 09:56:16;;;;;;;10.13;5.40;;;26.30;71.00;;;;;;5142193;28;20046;-78
2022/06/16 09:58:57;;;;;;;10.50;5.45;;;26.40;71.80;;;;;;5144424;28;20043;-78
2022/06/16 10:01:35;;;;;;;11.25;5.05;;;26.60;72.80;;;;;;5150342;28;20054;-78
2022/06/16 10:04:08;;;;;;;10.90;4.68;;;26.50;68.70;;;;;;5141330;28;20518;-76
2022/06/16 10:06:53;;;;;;;8.98;4.65;;;26.60;69.20;;;;;;5141926;28;20057;-78
2022/06/16 10:10:02;;;;;;;10.07;4.63;;;26.90;68.20;;;;;;5143393;28;20376;-78
2022/06/16 10:13:07;;;;;;;8.88;4.07;;;26.80;67.00;;;;;;5142320;28;20069;-77
2022/06/16 10:16:02;;;;;;;14.77;3.88;;;26.90;67.20;;;;;;5159655;28;20121;-76
2022/06/16 10:18:35;;;;;;;8.50;4.53;;;27.20;66.70;;;;;;5143477;28;20053;-77
2022/06/16 10:21:09;;;;;;;4.53;3.30;;;27.50;66.80;;;;;;5140858;28;20050;-78
2022/06/16 10:23:49;;;;;;;6.25;3.70;;;27.30;64.90;;;;;;5142440;28;20046;-76
2022/06/16 10:26:21;;;;;;;10.25;3.45;;;27.40;67.20;;;;;;5157404;28;20058;-77
2022/06/16 10:29:24;;;;;;;12.93;4.13;;;27.40;65.40;;;;;;5127856;28;20069;-77
2022/06/16 10:31:59;;;;;;;15.82;4.82;;;27.20;65.70;;;;;;5157494;28;20066;-76
2022/06/16 10:34:36;;;;;;;11.80;4.35;;;26.90;66.00;;;;;;5158437;28;20058;-77
2022/06/16 10:37:26;;;;;;;9.60;4.07;;;26.70;66.40;;;;;;5141064;28;20046;-77
2022/06/16 10:40:10;;;;;;;7.28;4.10;;;26.50;67.70;;;;;;5142352;28;20051;-76
2022/06/16 10:42:47;;;;;;;10.98;4.47;;;26.40;68.00;;;;;;5141224;28;20055;-77
2022/06/16 10:45:26;;;;;;;9.40;4.15;;;26.30;68.70;;;;;;5145601;28;20050;-77
2022/06/16 10:48:12;;;;;;;9.48;4.57;;;26.30;70.50;;;;;;5157841;28;20472;-75
2022/06/16 10:50:58;;;;;;;11.93;4.95;;;26.10;74.80;;;;;;5145638;28;20571;-77
2022/06/16 10:53:41;;;;;;;9.70;5.78;;;25.80;77.30;;;;;;5139278;28;20529;-78
2022/06/16 10:56:18;;;;;;;16.70;6.10;;;25.70;81.20;;;;;;5142007;28;20043;-75
2022/06/16 10:59:02;;;;;;;16.60;6.35;;;25.40;79.90;;;;;;5125429;28;20055;-76
2022/06/16 11:01:47;;;;;;;17.00;6.88;;;25.10;86.40;;;;;;5159725;28;20620;-76
2022/06/16 11:04:32;;;;;;;11.50;6.38;;;24.80;90.20;;;;;;5135311;28;21155;-77
2022/06/16 11:07:09;;;;;;;18.23;7.63;;;24.50;91.40;;;;;;5135392;28;20111;-76
2022/06/16 11:09:44;;;;;;;17.70;6.53;;;24.40;95.70;;;;;;5153565;28;20065;-77
2022/06/16 11:12:22;;;;;;;15.63;5.80;;;24.60;95.30;;;;;;5137444;28;20062;-76
2022/06/16 11:14:56;;;;;;;19.63;6.13;;;25.20;98.00;;;;;;5136206;28;20046;-76
2022/06/16 11:17:36;;;;;;;12.57;6.20;;;25.80;93.60;;;;;;5153312;28;20043;-77
2022/06/16 11:20:23;;;;;;;11.13;5.93;;;26.50;95.90;;;;;;5143689;28;20370;-76
2022/06/16 11:22:57;;;;;;;11.77;6.30;;;27.00;92.60;;;;;;5135809;28;20923;-77
2022/06/16 11:25:34;;;;;;;9.18;5.70;;;27.70;89.40;;;;;;5153206;28;20535;-78
2022/06/16 11:28:06;;;;;;;11.20;6.05;;;28.10;86.30;;;;;;5138055;28;20055;-78
2022/06/16 11:30:48;;;;;;;12.77;5.83;;;28.50;81.60;;;;;;5137591;28;20050;-77
2022/06/16 11:36:37;;;;;;;205.35;183.35;;;28.90;80.60;;;;;;5137592;28;20797;-77
2022/06/16 11:39:09;;;;;;;15.95;10.13;;;28.90;72.40;;;;;;5146718;28;20558;-81
2022/06/16 11:41:46;;;;;;;25.23;16.73;;;29.10;72.60;;;;;;5138587;28;20065;-76
2022/06/16 11:44:33;;;;;;;11.43;8.13;;;29.20;69.60;;;;;;5152656;28;20057;-79
2022/06/16 11:47:47;;;;;;;28.92;17.30;;;29.10;71.10;;;;;;5120848;28;20046;-78
2022/06/16 11:50:19;;;;;;;117.90;89.80;;;29.10;69.10;;;;;;5103704;28;20047;-77
2022/06/16 11:53:06;;;;;;;32.15;25.73;;;29.00;64.90;;;;;;5137637;28;20061;-80
2022/06/16 11:55:48;;;;;;;48.65;36.90;;;28.70;64.20;;;;;;5134442;28;20050;-77
2022/06/16 11:58:47;;;;;;;199.63;164.38;;;28.70;62.70;;;;;;5137212;28;20050;-77
2022/06/16 12:01:28;;;;;;;89.65;69.60;;;28.90;62.70;;;;;;5135176;28;20050;-79
2022/06/16 12:04:32;;;;;;;82.28;65.13;;;29.30;62.30;;;;;;5136268;28;20054;-78
2022/06/16 12:07:42;;;;;;;33.17;26.40;;;29.40;60.50;;;;;;5135914;28;20061;-79
2022/06/16 12:10:23;;;;;;;9.73;6.05;;;29.70;58.90;;;;;;5120315;28;20556;-77
2022/06/16 12:13:18;;;;;;;12.02;6.13;;;29.90;57.40;;;;;;5137004;28;20493;-78
2022/06/16 12:15:54;;;;;;;10.73;5.75;;;30.40;62.40;;;;;;5137970;28;20065;-77
2022/06/16 12:18:36;;;;;;;8.35;5.55;;;30.60;55.40;;;;;;5151479;28;20051;-77
2022/06/16 12:21:23;;;;;;;8.45;5.88;;;31.00;56.80;;;;;;5152623;28;20062;-77
2022/06/16 12:24:18;;;;;;;11.60;5.60;;;31.40;54.30;;;;;;5136253;28;20414;-79
2022/06/16 12:27:02;;;;;;;9.38;5.82;;;31.30;55.20;;;;;;5137768;28;20054;-77
2022/06/16 12:29:56;;;;;;;12.10;5.75;;;30.90;54.50;;;;;;5134261;28;20152;-74
2022/06/16 12:33:06;;;;;;;11.82;6.70;;;30.80;55.70;;;;;;5130541;28;20050;-79
2022/06/16 12:36:03;;;;;;;8.63;5.00;;;30.70;55.80;;;;;;5134998;28;20046;-76
2022/06/16 12:38:38;;;;;;;7.45;5.25;;;30.60;57.00;;;;;;5137475;28;20414;-76
2022/06/16 12:41:17;;;;;;;9.40;5.20;;;31.00;56.20;;;;;;5129767;28;20502;-78
2022/06/16 12:44:01;;;;;;;10.93;6.00;;;31.50;55.60;;;;;;5132142;28;20053;-82
2022/06/16 12:46:40;;;;;;;13.43;5.57;;;32.00;53.40;;;;;;5139330;28;20072;-77
2022/06/16 12:49:18;;;;;;;9.27;5.25;;;32.10;52.50;;;;;;5142134;28;20592;-76
2022/06/16 12:52:18;;;;;;;10.13;5.43;;;32.40;50.20;;;;;;5151220;28;20077;-77
2022/06/16 12:55:00;;;;;;;7.70;5.00;;;32.20;49.00;;;;;;5135163;28;20061;-79
2022/06/16 12:57:44;;;;;;;10.73;4.90;;;32.10;50.90;;;;;;5135685;28;20062;-76
2022/06/16 13:00:19;;;;;;;6.90;5.00;;;31.70;50.00;;;;;;5154046;28;20116;-78
2022/06/16 13:03:12;;;;;;;9.32;5.03;;;32.00;49.60;;;;;;5136607;28;20062;-76
2022/06/16 13:05:46;;;;;;;7.35;4.80;;;31.50;50.40;;;;;;5135277;28;20046;-76
2022/06/16 13:08:20;;;;;;;5.75;4.75;;;31.70;49.80;;;;;;5137222;28;20405;-78
2022/06/16 13:11:01;;;;;;;7.93;5.10;;;31.90;49.20;;;;;;5138345;28;21143;-77
2022/06/16 13:13:44;;;;;;;7.93;5.20;;;31.80;48.30;;;;;;5151922;28;20046;-80
2022/06/16 13:16:24;;;;;;;7.45;5.30;;;31.20;50.60;;;;;;5138092;28;20044;-79
2022/06/16 13:19:09;;;;;;;7.05;4.88;;;31.00;50.90;;;;;;5136200;28;20050;-76
2022/06/16 13:21:53;;;;;;;6.45;5.40;;;30.40;50.10;;;;;;5135829;28;20431;-77
2022/06/16 13:24:38;;;;;;;7.70;5.07;;;30.00;51.70;;;;;;5136507;28;20054;-77
2022/06/16 13:27:11;;;;;;;11.82;5.15;;;30.00;52.60;;;;;;5137140;28;20058;-77
2022/06/16 13:29:49;;;;;;;6.30;4.72;;;30.20;49.40;;;;;;5136410;28;20043;-75
2022/06/16 13:32:42;;;;;;;5.60;4.60;;;30.50;50.80;;;;;;5134731;28;20050;-78
2022/06/16 13:35:15;;;;;;;5.13;3.80;;;31.10;48.30;;;;;;5136802;28;20054;-76
2022/06/16 13:37:50;;;;;;;5.97;3.93;;;31.20;43.80;;;;;;5137669;28;20051;-77
2022/06/16 13:40:26;;;;;;;4.57;3.90;;;30.90;42.90;;;;;;5137057;28;20270;-77
2022/06/16 13:42:59;;;;;;;5.78;3.95;;;31.00;45.50;;;;;;5136082;28;20065;-77
2022/06/16 13:45:31;;;;;;;10.57;4.53;;;31.10;46.00;;;;;;5126747;28;20499;-77
2022/06/16 13:50:53;;;;;;;8.60;5.07;;;31.20;47.10;;;;;;5155752;28;20061;-76
2022/06/16 13:53:44;;;;;;;5.78;4.07;;;31.70;46.50;;;;;;5123593;28;20053;-77
2022/06/16 13:56:33;;;;;;;5.28;4.75;;;31.70;45.20;;;;;;5155051;28;20048;-77
2022/06/16 13:59:10;;;;;;;9.75;4.57;;;31.30;45.10;;;;;;5139853;28;20046;-81
2022/06/16 14:02:03;;;;;;;8.07;4.55;;;31.50;44.10;;;;;;5141506;28;20404;-78
2022/06/16 14:05:00;;;;;;;5.00;4.10;;;31.40;43.70;;;;;;5139307;28;20051;-76
2022/06/16 14:07:51;;;;;;;5.40;4.50;;;31.70;44.90;;;;;;5153331;28;20054;-77
2022/06/16 14:10:34;;;;;;;8.75;4.30;;;31.50;46.10;;;;;;5133539;28;20483;-77
2022/06/16 14:13:23;;;;;;;6.65;4.10;;;32.00;46.10;;;;;;5148924;28;20062;-78
2022/06/16 14:16:15;;;;;;;5.78;3.95;;;32.70;46.30;;;;;;5138035;28;20031;-79
2022/06/16 14:19:06;;;;;;;8.88;4.13;;;32.70;43.50;;;;;;5154293;28;20046;-76
2022/06/16 14:22:03;;;;;;;6.90;4.28;;;33.00;44.30;;;;;;5153496;28;20051;-75